createdAt,value
2022-10-01T00:01:18.567Z,20.426964941610642
2022-10-01T00:04:17.300Z,20.356948937160723
2022-10-01T00:07:17.918Z,20.342817273090713
2022-10-01T00:11:19.155Z,20.33767848670186
2022-10-01T00:14:17.921Z,20.336393790150122
2022-10-01T00:17:16.773Z,20.327400914797273
2022-10-01T00:21:19.008Z,20.38071583169658
2022-10-01T00:24:17.243Z,20.390993409640213
2022-10-01T00:27:17.095Z,20.361445376190023
2022-10-01T00:31:16.966Z,20.37943113453548
2022-10-01T00:34:16.996Z,20.36851120940055
2022-10-01T00:37:18.241Z,20.315196299672607
2022-10-01T00:41:17.554Z,20.275370724895037
2022-10-01T00:44:35.406Z,20.2316910823356
2022-10-01T00:47:25.961Z,20.168741046224387
2022-10-01T00:51:17.051Z,20.146258901054626
2022-10-01T00:54:20.963Z,20.121207374427467
2022-10-01T00:57:20.458Z,20.1083604403786
2022-10-01T01:01:16.316Z,20.103864013891233
2022-10-01T01:04:17.272Z,20.08009719187394
2022-10-01T01:07:17.421Z,20.088447696197637
2022-10-01T01:11:27.802Z,20.03256356651582
2022-10-01T01:14:23.501Z,20.017789606950192
2022-10-01T01:17:23.947Z,19.9953074991834
2022-10-01T01:21:24.290Z,20.021643683126694
2022-10-01T01:31:23.496Z,19.927861209306958
2022-10-01T01:34:21.054Z,19.894459255740458
2022-10-01T01:37:23.418Z,19.92850355468836
2022-10-01T01:41:19.393Z,19.881612353796754
2022-10-01T01:44:24.125Z,19.824443662204793
2022-10-01T01:47:22.787Z,19.831509453596755
2022-10-01T01:51:23.593Z,19.83600586658722
2022-10-01T01:54:17.965Z,19.823801317560083
2022-10-01T01:57:19.042Z,19.791041746709745
2022-10-01T02:01:34.760Z,19.780764236723552
2022-10-01T02:04:22.266Z,19.788472369104056
2022-10-01T02:07:33.386Z,19.79810753550055
2022-10-01T02:11:25.445Z,19.83343648770824
2022-10-01T02:14:25.364Z,19.816093182178246
2022-10-01T02:17:27.633Z,19.797465191042285
2022-10-01T02:21:22.154Z,19.816093182178246
2022-10-01T02:24:25.776Z,19.828940074845104
2022-10-01T02:27:23.347Z,19.805815669354434
2022-10-01T02:31:18.863Z,19.831509453596755
2022-10-01T02:34:20.367Z,19.823801317560083
2022-10-01T02:37:20.546Z,19.8443563484464
2022-10-01T02:41:21.097Z,19.884181734039977
2022-10-01T02:44:20.320Z,19.863626694131472
2022-10-01T02:47:20.818Z,19.821874283653234
2022-10-01T02:51:28.112Z,19.846925727634606
2022-10-01T02:54:23.649Z,19.814808493011604
2022-10-01T02:57:25.136Z,19.79874987996336
2022-10-01T03:01:16.109Z,19.879685318662087
2022-10-01T03:04:16.557Z,19.83343648770824
2022-10-01T03:07:17.355Z,19.788472369104056
2022-10-01T03:11:16.603Z,19.824443662204793
2022-10-01T03:14:16.994Z,19.823801317560083
2022-10-01T03:17:17.569Z,19.779479548057132
2022-10-01T03:21:16.289Z,19.81930490517443
2022-10-01T03:24:16.803Z,19.791684091122534
2022-10-01T03:27:20.430Z,19.787830024714005
2022-10-01T03:31:17.001Z,19.755070466851247
2022-10-01T03:34:17.951Z,19.771129072168787
2022-10-01T03:37:17.478Z,19.76020922024363
2022-10-01T03:41:16.353Z,19.7903994023015
2022-10-01T03:44:16.900Z,19.774340793573355
2022-10-01T03:47:16.818Z,19.754428122697664
2022-10-01T03:51:19.761Z,19.782048925408162
2022-10-01T03:54:17.040Z,19.763420941261664
2022-10-01T03:57:16.889Z,19.752501090264197
2022-10-01T04:01:16.235Z,19.771771416440608
2022-10-01T04:04:16.547Z,19.766632662393384
2022-10-01T04:07:16.461Z,19.747362337308367
2022-10-01T04:11:16.125Z,19.75635515517206
2022-10-01T04:14:16.440Z,19.762778597048964
2022-10-01T04:17:16.677Z,19.74222358464358
2022-10-01T04:21:17.258Z,19.778837203730745
2022-10-01T04:24:17.324Z,19.744792960939595
2022-10-01T04:27:17.307Z,19.726807328395445
2022-10-01T04:31:35.878Z,19.730661392211914
2022-10-01T04:34:16.811Z,19.72295326474268
2022-10-01T04:37:16.913Z,19.710748730922298
2022-10-01T04:41:16.890Z,19.709464043247227
2022-10-01T04:44:17.095Z,19.699828886264005
2022-10-01T04:47:17.158Z,19.668996390793474
2022-10-01T04:51:16.890Z,19.684412637219065
2022-10-01T04:54:16.893Z,19.65036842985728
2022-10-01T04:57:17.203Z,19.601550343479268
2022-10-01T05:01:16.812Z,19.625317040145454
2022-10-01T05:04:17.112Z,19.586776454094796
2022-10-01T05:07:17.162Z,19.56943319571301
2022-10-01T05:11:16.755Z,19.542454800375072
2022-10-01T05:14:16.928Z,19.528323263161383
2022-10-01T05:17:17.816Z,19.5334620037117
2022-10-01T05:21:17.335Z,19.537316059315437
2022-10-01T05:24:17.758Z,19.5161187555208
2022-10-01T05:27:17.912Z,19.49427911436651
2022-10-01T05:31:16.469Z,19.45445389991255
2022-10-01T05:34:16.709Z,19.44353408609977
2022-10-01T05:37:16.646Z,19.442891744151712
2022-10-01T05:41:16.800Z,19.46408903083875
2022-10-01T05:44:17.292Z,19.413986361195658
2022-10-01T05:47:17.729Z,19.441607060269234
2022-10-01T05:51:17.027Z,19.47308182062634
2022-10-01T05:54:19.833Z,19.472439478469095
2022-10-01T05:57:16.995Z,19.44803047986352
2022-10-01T06:01:16.592Z,19.451884531838367
2022-10-01T06:04:16.791Z,19.459592636279194
2022-10-01T06:07:16.753Z,19.44417642805238
2022-10-01T06:11:17.472Z,19.485286322477986
2022-10-01T06:14:17.272Z,19.46280434665614
2022-10-01T06:17:17.092Z,19.46408903083875
2022-10-01T06:21:17.008Z,19.48400163799524
2022-10-01T06:31:16.984Z,19.496206141315724
2022-10-01T06:34:17.040Z,19.500702537689723
2022-10-01T06:37:17.712Z,19.493636772059197
2022-10-01T06:41:17.173Z,19.534104346300957
2022-10-01T06:44:17.913Z,19.536031374096
2022-10-01T06:47:17.470Z,19.55080525521771
2022-10-01T06:51:16.551Z,19.539885429808873
2022-10-01T06:54:18.523Z,19.597696285147048
2022-10-01T06:57:16.864Z,19.597053942107596
2022-10-01T07:01:20.147Z,19.631098129465045
2022-10-01T07:04:17.132Z,19.649083743037135
2022-10-01T07:07:17.109Z,19.656791864230854
2022-10-01T07:11:16.944Z,19.706252324139133
2022-10-01T07:14:17.128Z,19.703040605144725
2022-10-01T07:17:17.417Z,19.728734360283216
2022-10-01T07:21:16.197Z,19.780764236723552
2022-10-01T07:24:16.911Z,19.79361112438819
2022-10-01T07:27:17.450Z,19.81288145929575
2022-10-01T07:31:16.853Z,19.862984349209363
2022-10-01T07:34:17.076Z,19.862342004291804
2022-10-01T07:37:17.581Z,19.843714003660715
2022-10-01T07:41:17.780Z,19.925934173190036
2022-10-01T07:44:16.974Z,19.904094433391947
2022-10-01T07:47:16.709Z,19.946489227213895
2022-10-01T07:51:16.816Z,19.997234536773703
2022-10-01T07:54:17.112Z,20.027424797698405
2022-10-01T07:57:17.668Z,20.08009719187394
2022-10-01T08:01:17.632Z,20.125061454996832
2022-10-01T08:05:24.323Z,20.1224920679324
2022-10-01T08:07:17.631Z,20.15332471750771
2022-10-01T08:11:18.786Z,20.216274742923268
2022-10-01T08:14:19.665Z,20.25481559636537
2022-10-01T08:17:16.939Z,20.30299168618958
2022-10-01T08:21:16.566Z,20.33896318327179
2022-10-01T08:24:17.338Z,20.359518330864468
2022-10-01T08:27:17.055Z,20.37429234607298
2022-10-01T08:31:16.815Z,20.42953433729708
2022-10-01T08:34:17.177Z,20.491199855599554
2022-10-01T08:37:16.956Z,20.545157218493113
2022-10-01T08:41:29.353Z,20.639582680766125
2022-10-01T08:44:20.145Z,20.6549990921013
2022-10-01T08:47:25.899Z,20.694182482700853
2022-10-01T08:51:24.812Z,20.730154134870098
2022-10-01T08:54:27.322Z,20.766768152616077
2022-10-01T08:57:20.498Z,20.77319166602474
2022-10-01T09:01:16.956Z,20.76291404478916
2022-10-01T09:04:17.521Z,20.766125801300223
2022-10-01T09:07:40.491Z,20.753921127162993
2022-10-01T09:11:37.487Z,20.804024536716405
2022-10-01T09:14:31.472Z,20.789892803015483
2022-10-01T09:17:31.463Z,20.90101967742412
2022-10-01T09:21:18.698Z,21.05711141294387
2022-10-01T09:24:29.534Z,21.058396119700138
2022-10-01T09:27:18.616Z,21.093725562625696
2022-10-01T09:31:22.228Z,21.202283391507898
2022-10-01T09:34:26.958Z,21.2485329201897
2022-10-01T09:37:26.005Z,21.321761388814867
2022-10-01T09:41:18.947Z,21.44894781688936
2022-10-01T09:44:25.723Z,21.506117532031205
2022-10-01T09:47:20.665Z,21.551724858704347
2022-10-01T09:51:21.350Z,21.622384142482133
2022-10-01T09:54:24.627Z,21.644866653405188
2022-10-01T09:57:24.615Z,21.673130389326253
2022-10-01T10:01:37.529Z,21.68597754492803
2022-10-01T10:04:20.268Z,21.63073478874612
2022-10-01T10:07:18.567Z,21.57998856561253
2022-10-01T10:11:22.915Z,21.518964663986118
2022-10-01T10:14:22.295Z,21.46115258451355
2022-10-01T10:17:17.288Z,21.480423273578346
2022-10-01T10:21:21.070Z,21.44766310460336
2022-10-01T10:24:31.885Z,21.432246558590215
2022-10-01T10:27:23.572Z,21.387924003392982
2022-10-01T10:31:20.000Z,21.43031949052274
2022-10-01T10:34:20.432Z,21.454729022401445
2022-10-01T10:37:23.450Z,21.500978679758553
2022-10-01T10:41:19.314Z,21.589623922252578
2022-10-01T10:44:18.692Z,21.601828708798802
2022-10-01T10:47:19.924Z,21.714883651682705
2022-10-01T10:51:16.298Z,21.745716842370985
2022-10-01T10:54:22.130Z,21.775265326612224
2022-10-01T10:57:19.915Z,21.872903864709315
2022-10-01T11:01:26.210Z,22.104795813770032
2022-10-01T11:04:26.464Z,22.175455528239034
2022-10-01T11:07:21.050Z,22.203719429433477
2022-10-01T11:11:31.473Z,22.26795560125356
2022-10-01T11:14:31.237Z,22.422122599158683
2022-10-01T11:17:36.332Z,22.43047331902353
2022-10-01T11:21:34.330Z,22.716325347038218
2022-10-01T11:24:33.580Z,22.82938167853863
2022-10-01T11:27:23.450Z,22.92702135092113
2022-10-01T11:31:28.346Z,23.16790914989624
2022-10-01T11:34:35.588Z,23.377963832547902
2022-10-01T11:37:37.714Z,23.575171576553203
2022-10-01T11:41:28.511Z,23.54754961917097
2022-10-01T11:44:24.291Z,23.6811628864034
2022-10-01T11:47:22.898Z,23.787796692761184
2022-10-01T11:51:20.782Z,23.735764518582528
2022-10-01T11:54:24.360Z,23.716493350532346
2022-10-01T12:01:29.418Z,23.47431935424829
2022-10-01T12:04:30.185Z,23.458260093526132
2022-10-01T12:07:23.267Z,23.45312113069531
2022-10-01T12:11:22.816Z,23.575813947755158
2022-10-01T12:14:21.913Z,23.610501999413827
2022-10-01T12:17:24.413Z,23.613071485249385
2022-10-01T12:21:22.303Z,23.720347583814963
2022-10-01T12:24:21.553Z,23.805783130280908
2022-10-01T12:27:33.833Z,23.896357744828947
2022-10-01T12:31:25.224Z,24.067229249639148
2022-10-01T12:34:28.573Z,24.124400614440674
2022-10-01T12:37:32.379Z,24.202770408991274
2022-10-01T12:41:37.339Z,24.298484430212646
2022-10-01T12:45:00.318Z,24.39612568340608
2022-10-01T12:47:29.828Z,24.452012500603814
2022-10-01T12:51:36.340Z,24.489270397857762
2022-10-01T12:54:43.563Z,24.60618320924732
2022-10-01T12:57:31.286Z,24.6762024925848
2022-10-01T13:01:31.476Z,24.653719230578282
2022-10-01T13:04:50.116Z,24.622885051742195
2022-10-01T13:07:34.464Z,24.763566077831
2022-10-01T13:11:35.926Z,24.922233980839156
2022-10-01T13:14:20.285Z,24.989041601948337
2022-10-01T13:17:23.611Z,25.08861074391907
2022-10-01T13:21:27.030Z,25.178544256378608
2022-10-01T13:24:25.937Z,25.24792159831859
2022-10-01T13:27:25.636Z,25.258199727561532
2022-10-01T13:31:31.544Z,25.218371983229826
2022-10-01T13:34:34.077Z,25.315371842723472
2022-10-01T13:37:30.177Z,25.269120241157726
2022-10-01T13:41:21.989Z,25.08411407063577
2022-10-01T13:44:24.679Z,24.929942549995395
2022-10-01T13:47:20.487Z,25.0198759052033
2022-10-01T13:51:17.349Z,25.13229272455292
2022-10-01T13:54:25.187Z,25.05713403561531
2022-10-01T13:57:28.789Z,25.09439218132502
2022-10-01T14:01:29.090Z,25.231219640781728
2022-10-01T14:04:26.807Z,25.29096127229277
2022-10-01T14:07:20.645Z,25.299312256174836
2022-10-01T14:21:32.370Z,25.51258379728906
2022-10-01T14:24:28.386Z,25.395027434014263
2022-10-01T14:27:28.003Z,25.265908325257715
2022-10-01T14:31:28.494Z,25.21708721757468
2022-10-01T14:34:44.990Z,25.200385265713066
2022-10-01T14:37:18.949Z,25.010882565671636
2022-10-01T14:41:18.387Z,24.822022641398142
2022-10-01T14:44:23.762Z,24.708321447971777
2022-10-01T14:47:20.278Z,24.75585752280831
2022-10-01T14:51:23.786Z,24.756499902368525
2022-10-01T14:54:17.000Z,24.70510955192149
2022-10-01T14:57:26.860Z,24.57984569463597
2022-10-01T15:01:19.045Z,24.39612568340608
2022-10-01T15:04:21.327Z,24.2470943391535
2022-10-01T15:07:18.508Z,24.16551262937137
2022-10-01T15:11:20.856Z,24.10255986408483
2022-10-01T15:14:20.623Z,23.97344259438114
2022-10-01T15:17:21.965Z,23.843683135297123
2022-10-01T15:21:20.259Z,23.670242563910232
2022-10-01T15:24:23.894Z,23.60472065654985
2022-10-01T15:27:19.056Z,23.553330958392415
2022-10-01T15:31:21.165Z,23.407512848325133
2022-10-01T15:34:20.224Z,23.241781536373672
2022-10-01T15:37:23.019Z,23.19039204376204
2022-10-01T15:41:31.541Z,23.047786354205165
2022-10-01T15:44:40.271Z,22.94950418510134
2022-10-01T15:47:31.828Z,22.917385852263486
2022-10-01T15:51:23.130Z,22.760006185692326
2022-10-01T15:54:18.144Z,22.754867262406332
2022-10-01T15:57:21.117Z,22.70412041058453
2022-10-01T16:01:22.657Z,22.755509627801167
2022-10-01T16:04:20.277Z,22.710544061144994
2022-10-01T16:07:29.115Z,22.74394705138993
2022-10-01T16:11:20.488Z,22.721464268141425
2022-10-01T16:14:36.999Z,22.72981501555487
2022-10-01T16:17:29.546Z,22.72017953783834
2022-10-01T16:21:28.953Z,22.656585410570642
2022-10-01T16:24:25.700Z,22.55509184523844
2022-10-01T16:27:20.812Z,22.470299839721065
2022-10-01T16:31:17.609Z,22.40542116173456
2022-10-01T16:34:19.842Z,22.29365008271452
2022-10-01T16:37:17.761Z,22.208858321505613
2022-10-01T16:41:20.617Z,22.121497195860503
2022-10-01T16:44:16.832Z,22.089379156107317
2022-10-01T16:47:16.622Z,21.90052531231522
2022-10-01T16:51:17.014Z,21.815733918469412
2022-10-01T16:54:21.216Z,21.71167186158855
2022-10-01T16:57:17.317Z,21.55557900003705
2022-10-01T17:01:16.651Z,21.437385406970225
2022-10-01T17:04:16.921Z,21.3641568450309
2022-10-01T17:07:16.880Z,21.319834323093893
2022-10-01T17:11:16.728Z,21.209349290197498
2022-10-01T17:14:18.431Z,21.095010269900378
2022-10-01T17:17:17.021Z,21.011504334881103
2022-10-01T17:21:16.918Z,20.926713771804135
2022-10-01T17:24:17.786Z,20.82971860362968
2022-10-01T17:27:17.262Z,20.77961517988815
2022-10-01T17:31:18.031Z,20.718591816546176
2022-10-01T17:34:17.047Z,20.654356741576702
2022-10-01T17:37:16.820Z,20.586909961800938
2022-10-01T17:41:16.803Z,20.643436783354353
2022-10-01T17:44:16.993Z,20.52267498005467
2022-10-01T17:47:17.189Z,20.410263871422284
2022-10-01T17:51:17.695Z,20.35052545321969
2022-10-01T17:54:17.315Z,20.239399253024022
2022-10-01T17:57:17.806Z,20.22077117498129
2022-10-01T18:01:19.011Z,20.12377676145552
2022-10-01T18:04:17.897Z,20.0775278060828
2022-10-01T18:07:17.437Z,19.983745274501054
2022-10-01T18:11:16.539Z,19.96704428589437
2022-10-01T18:14:16.903Z,19.88353938897235
2022-10-01T18:17:16.742Z,19.8443563484464
2022-10-01T18:21:16.396Z,19.666427016643865
2022-10-01T18:24:17.255Z,19.574571938591635
2022-10-01T18:27:17.581Z,19.501344880047053
2022-10-01T18:31:19.016Z,19.575856624356767
2022-10-01T18:34:22.556Z,19.402424210591654
2022-10-01T18:37:25.388Z,19.29258385333851
2022-10-01T18:41:26.336Z,19.24505064054538
2022-10-01T18:44:20.471Z,19.134568134043366
2022-10-01T18:47:25.967Z,19.09345839852467
2022-10-01T18:51:29.038Z,18.995822851319097
2022-10-01T18:54:34.768Z,18.907822481032873
2022-10-01T18:57:28.966Z,18.828172584434014
2022-10-01T19:01:24.583Z,18.706128523683674
2022-10-01T19:04:50.483Z,18.62583646798157
2022-10-01T19:07:30.399Z,18.583442291233588
2022-10-01T19:11:27.564Z,18.48773429838411
2022-10-01T19:14:33.036Z,18.4145081169926
2022-10-01T19:17:33.409Z,18.30723829130293
2022-10-01T19:21:26.166Z,18.228873588631178
2022-10-01T19:24:31.065Z,18.157574614678104
2022-10-01T19:27:29.965Z,18.06700572855516
2022-10-01T19:31:25.136Z,18.016903830390948
2022-10-01T19:34:23.956Z,17.96359030247195
2022-10-01T19:37:25.220Z,17.897430184879703
2022-10-01T19:41:23.355Z,17.80364990668022
2022-10-01T19:44:24.453Z,17.743270874751396
2022-10-01T19:47:28.161Z,17.65141774366357
2022-10-01T19:51:22.203Z,17.558280048350934
2022-10-01T19:54:21.627Z,17.567914977915006
2022-10-01T19:57:22.148Z,17.488266257583838
2022-10-01T20:01:19.822Z,17.47220805630932
2022-10-01T20:04:26.173Z,17.355946763860356
2022-10-01T20:07:23.365Z,17.33025368065655
2022-10-01T20:11:26.347Z,17.30070664396708
2022-10-01T20:15:21.213Z,17.212707917788066
2022-10-01T20:17:33.633Z,17.129847881377735
2022-10-01T20:21:29.541Z,17.125351602496814
2022-10-01T20:24:33.547Z,17.02386422417512
2022-10-01T20:27:25.637Z,16.993032638053773
2022-10-01T20:31:22.228Z,16.962201062409804
2022-10-01T20:34:23.936Z,16.929442524768184
2022-10-01T20:37:34.396Z,16.866494779755975
2022-10-01T20:41:20.560Z,16.835663247112915
2022-10-01T20:44:21.570Z,16.775284859370096
2022-10-01T20:47:22.895Z,16.70976793089294
2022-10-01T20:51:23.220Z,16.67251322795719
2022-10-01T20:54:20.798Z,16.574237964305574
2022-10-01T20:57:25.089Z,16.511290465739147
2022-10-01T21:01:21.375Z,16.479174411867643
2022-10-01T21:04:26.282Z,16.44962765234668
2022-10-01T21:07:29.387Z,16.42008090244817
2022-10-01T21:11:25.495Z,16.376403115876382
2022-10-01T21:14:23.369Z,16.362914391920004
2022-10-01T21:17:32.588Z,16.310244155675264
2022-10-01T21:21:28.909Z,16.29354384325061
2022-10-01T21:24:36.465Z,16.250508436939345
2022-10-01T21:27:38.543Z,16.16957623558701
2022-10-01T21:31:30.253Z,16.108555972780685
2022-10-01T21:34:27.231Z,16.0873594700417
2022-10-01T21:37:24.172Z,16.03725866507193
2022-10-01T21:41:27.252Z,16.05203197648161
2022-10-01T21:44:45.250Z,15.946691895529602
2022-10-01T21:47:26.283Z,15.940268723818098
2022-10-01T21:51:23.027Z,15.908795189005104
2022-10-01T22:01:25.114Z,15.822082445489741
2022-10-01T22:04:23.482Z,15.788039687357742
2022-10-01T22:07:24.897Z,15.755923889508995
2022-10-01T22:11:20.243Z,15.74757378393051
2022-10-01T22:14:19.523Z,15.671780553057852
2022-10-01T22:17:23.724Z,15.663430455223715
2022-10-01T22:21:23.033Z,15.638380166332444
2022-10-01T22:24:21.214Z,15.593418126696724
2022-10-01T22:27:22.890Z,15.571579429770736
2022-10-01T22:31:21.927Z,15.540106022859982
2022-10-01T22:34:21.623Z,15.459174455225366
2022-10-01T22:37:21.819Z,15.441831985839325
2022-10-01T22:41:26.315Z,15.450182063278044
2022-10-01T22:44:19.961Z,15.402008550166011
2022-10-01T22:47:30.669Z,15.33071179770377
2022-10-01T22:51:31.052Z,15.330069484873183
2022-10-01T22:54:30.265Z,15.29988078696515
2022-10-01T22:57:34.489Z,15.311442414764315
2022-10-01T23:01:26.542Z,15.302450037459858
2022-10-01T23:04:32.596Z,15.212526313437047
2022-10-01T23:07:28.367Z,15.206745505656091
2022-10-01T23:11:25.486Z,15.191972331889337
2022-10-01T23:14:37.679Z,15.169491419903443
2022-10-01T23:17:22.086Z,15.152791317462924
2022-10-01T23:21:30.024Z,15.096910227803528
2022-10-01T23:24:32.934Z,15.103975651032034
2022-10-01T23:27:29.774Z,15.0904871162551
2022-10-01T23:31:27.919Z,15.079567827666414
2022-10-01T23:34:26.362Z,15.025613715106829
2022-10-01T23:37:32.494Z,14.991571255834788
2022-10-01T23:41:24.622Z,15.006986707507531
2022-10-01T23:44:28.656Z,14.955601878784728
2022-10-01T23:47:23.237Z,14.931836405343438
2022-10-01T23:51:22.016Z,14.92669792541792
2022-10-01T23:54:23.263Z,14.883663167467239
2022-10-01T23:57:21.700Z,14.901647839948783
